Ana Sayfa
METAR-TAF:

METAR-TAF

Havaalanları :

Kenneth Kaunda Uluslararası Havalimanı

Lusaka, Zambiya

Enlem: 15-19-51S, Boylam: 028-27-09E, yükseklik: 1152 m

Güncel hava durumu gözlemi

Rapor saat 12:00 UTC de 31 dakika önce yapıldı.
Rüzgar kuzey/kuzeydoğudan 3 kt
Sıcaklık 31°C
Nem 33%
Basınç 1016 hPa
Görüş mesafesi 10 km veya daha fazla
3500 ft yükseklikte parçalı bulutlu

METAR: FLKK 211200Z 03003KT 9999 SCT035 31/13 Q1016

Saat: 14:31 (12:31 UTC)


TAF: eksik

4.000'den fazla havaalanı için hava durumu gözlemleri ve tahminleri (METAR ve TAF raporları).

Kullanılabilir istasyonlar harita üzerinde sarı ve kırmızı noktalarla gösterilir.

İstasyonun adını görmek için fareyi noktanın üzerinde gezdirin.

Sonrasında hava gözlem ve tahminlerini görmek için tıklayın.

Haritayı değiştirmek için: yaklaştırmak için siyah artı işaretli yeşil düğmeye ve uzaklaştırmak için de eksi işaretli düğmeye hızla tıklayın; bitişik haritalar için yeşil okları kullanın.


METAR-TAF: